createdAt,value
2018-06-19T00:00:21.432Z,79.41
2018-06-19T00:01:31.173Z,80.55
2018-06-19T00:02:41.181Z,80.46
2018-06-19T00:03:51.186Z,81.7
2018-06-19T00:05:00.657Z,81.6
2018-06-19T00:06:10.144Z,82.23
2018-06-19T00:07:19.350Z,82.94
2018-06-19T00:08:29.090Z,83.33
2018-06-19T00:09:39.106Z,83.9
2018-06-19T00:10:48.848Z,84.28
2018-06-19T00:11:58.851Z,83.99
2018-06-19T00:13:08.592Z,84.33
2018-06-19T00:14:18.066Z,85.24
2018-06-19T00:15:27.805Z,85.24
2018-06-19T00:16:37.817Z,85.58
2018-06-19T00:17:47.562Z,86.1
2018-06-19T00:18:57.307Z,86.82
2018-06-19T00:20:07.051Z,85.29
2018-06-19T00:21:16.798Z,83.95
2018-06-19T00:22:26.803Z,83.95
2018-06-19T00:23:36.274Z,80.13
2018-06-19T00:24:46.011Z,79.36
2018-06-19T00:25:55.779Z,79.56
2018-06-19T00:27:05.251Z,79.31
2018-06-19T00:28:15.258Z,80.13
2018-06-19T00:29:25.258Z,79.94
2018-06-19T00:30:35.261Z,78.79
2018-06-19T00:31:45.050Z,78.79
2018-06-19T00:32:55.093Z,77.65
2018-06-19T00:34:04.836Z,77.36
2018-06-19T00:35:14.845Z,76.79
2018-06-19T00:36:24.584Z,75.64
2018-06-19T00:37:34.588Z,75.45
2018-06-19T00:38:44.329Z,76.4
2018-06-19T00:39:54.338Z,76.03
2018-06-19T00:41:04.079Z,76.31
2018-06-19T00:42:13.548Z,76.98
2018-06-19T00:43:23.556Z,77.26
2018-06-19T00:44:33.561Z,77.36
2018-06-19T00:45:43.568Z,77.74
2018-06-19T00:46:53.307Z,78.31
2018-06-19T00:48:03.311Z,76.69
2018-06-19T00:49:12.517Z,77.26
2018-06-19T00:50:22.514Z,77.36
2018-06-19T00:51:32.271Z,78.03
2018-06-19T00:52:42.301Z,77.94
2018-06-19T00:53:52.309Z,77.36
2018-06-19T00:55:02.055Z,76.18
2018-06-19T00:56:11.532Z,76.31
2018-06-19T00:57:21.012Z,75.89
2018-06-19T00:58:31.015Z,76.12
2018-06-19T00:59:40.757Z,75.6
2018-06-19T01:00:50.495Z,75.45
2018-06-19T01:02:00.508Z,76.03
2018-06-19T01:03:10.253Z,74.65
2018-06-19T01:04:19.989Z,74.49
2018-06-19T01:05:29.723Z,74.84
2018-06-19T01:06:39.731Z,74.11
2018-06-19T01:07:49.741Z,75.32
2018-06-19T01:08:59.745Z,74.84
2018-06-19T01:10:09.758Z,75.03
2018-06-19T01:11:19.775Z,75.22
2018-06-19T01:12:29.514Z,75.32
2018-06-19T01:13:38.984Z,74.46
2018-06-19T01:14:48.720Z,74.84
2018-06-19T01:15:58.726Z,75.03
2018-06-19T01:17:08.471Z,75.7
2018-06-19T01:18:18.215Z,75.42
2018-06-19T01:19:27.689Z,75.51
2018-06-19T01:20:37.427Z,75.22
2018-06-19T01:21:47.436Z,75.6
2018-06-19T01:22:57.183Z,76.42
2018-06-19T01:24:06.927Z,77.28
2018-06-19T01:25:16.936Z,75.85
2018-06-19T01:26:26.409Z,76.04
2018-06-19T01:27:36.145Z,74.99
2018-06-19T01:28:45.790Z,74.99
2018-06-19T01:29:55.544Z,75.28
2018-06-19T01:31:05.288Z,75.47
2018-06-19T01:32:15.024Z,75.95
2018-06-19T01:33:25.331Z,75.09
2018-06-19T01:34:35.336Z,75.57
2018-06-19T01:35:45.340Z,75.66
2018-06-19T01:36:55.079Z,76.04
2018-06-19T01:38:04.601Z,76.33
2018-06-19T01:39:14.402Z,76.42
2018-06-19T01:40:24.404Z,77.47
2018-06-19T01:41:34.474Z,76.9
2018-06-19T01:42:44.218Z,76.81
2018-06-19T01:43:53.951Z,76.96
2018-06-19T01:45:03.688Z,77.44
2018-06-19T01:46:13.697Z,77.53
2018-06-19T01:47:23.708Z,77.15
2018-06-19T01:48:33.441Z,77.06
2018-06-19T01:49:42.918Z,77.34
2018-06-19T01:50:52.657Z,77.62
2018-06-19T01:52:02.666Z,77.25
2018-06-19T01:53:12.133Z,77.34
2018-06-19T01:54:22.143Z,77.25
2018-06-19T01:55:31.617Z,76.86
2018-06-19T01:56:41.628Z,76.96
2018-06-19T01:57:51.631Z,76.86
2018-06-19T01:59:01.635Z,76.96
2018-06-19T02:00:11.100Z,77.15
2018-06-19T02:01:20.574Z,77.34
2018-06-19T02:02:30.314Z,77.34
2018-06-19T02:03:40.316Z,77.44
2018-06-19T02:04:50.340Z,77.72
2018-06-19T02:06:00.079Z,78.01
2018-06-19T02:07:09.556Z,78.3
2018-06-19T02:08:19.021Z,78.67
2018-06-19T02:09:28.235Z,79.15
2018-06-19T02:10:38.239Z,79.44
2018-06-19T02:11:47.973Z,78.96
2018-06-19T02:12:57.977Z,79.15
2018-06-19T02:14:08.033Z,79.35
2018-06-19T02:15:18.050Z,80.2
2018-06-19T02:16:27.521Z,79.35
2018-06-19T02:17:37.260Z,79.88
2018-06-19T02:18:47.265Z,79.97
2018-06-19T02:19:57.270Z,79.88
2018-06-19T02:21:07.277Z,79.78
2018-06-19T02:22:16.758Z,79.78
2018-06-19T02:23:26.764Z,79.3
2018-06-19T02:24:36.771Z,79.4
2018-06-19T02:25:46.241Z,79.21
2018-06-19T02:26:55.975Z,79.49
2018-06-19T02:28:06.009Z,79.97
2018-06-19T02:29:16.011Z,79.97
2018-06-19T02:30:26.012Z,79.78
2018-06-19T02:31:39.314Z,79.59
2018-06-19T02:32:49.047Z,80.07
2018-06-19T02:33:59.054Z,80.16
2018-06-19T02:35:08.794Z,79.78
2018-06-19T02:36:18.806Z,79.88
2018-06-19T02:37:28.286Z,80.07
2018-06-19T02:38:38.289Z,79.59
2018-06-19T02:39:48.034Z,80.07
2018-06-19T02:40:58.057Z,79.11
2018-06-19T02:42:07.799Z,79.4
2018-06-19T02:43:17.819Z,79.4
2018-06-19T02:44:27.564Z,78.73
2018-06-19T02:45:37.597Z,78.64
2018-06-19T02:46:47.603Z,78.25
2018-06-19T02:47:57.609Z,77.97
2018-06-19T02:49:07.355Z,77.11
2018-06-19T02:50:17.096Z,77.49
2018-06-19T02:51:26.842Z,77.3
2018-06-19T02:52:36.589Z,77.69
2018-06-19T02:53:46.596Z,77.2
2018-06-19T02:54:56.609Z,75.96
2018-06-19T02:56:06.625Z,75.96
2018-06-19T02:57:16.647Z,76.16
2018-06-19T02:58:26.667Z,77.11
2018-06-19T02:59:36.405Z,77.01
2018-06-19T03:03:29.357Z,75.3
2018-06-19T03:04:39.108Z,72.63
2018-06-19T03:05:49.124Z,73.72
2018-06-19T03:06:59.152Z,70.92
2018-06-19T03:08:08.927Z,71.04
2018-06-19T03:09:18.669Z,72.09
2018-06-19T03:10:28.437Z,73.62
2018-06-19T03:11:38.178Z,75.24
2018-06-19T03:12:48.185Z,76.01
2018-06-19T03:13:58.197Z,74.57
2018-06-19T03:15:07.937Z,73.43
2018-06-19T03:16:17.953Z,74.19
2018-06-19T03:17:27.967Z,74.96
2018-06-19T03:18:37.721Z,73.14
2018-06-19T03:19:47.730Z,74.19
2018-06-19T03:20:57.209Z,73.81
2018-06-19T03:22:06.683Z,74.48
2018-06-19T03:23:16.691Z,75.24
2018-06-19T03:24:26.444Z,75.53
2018-06-19T03:25:35.919Z,74.96
2018-06-19T03:26:45.390Z,75.72
2018-06-19T03:27:55.396Z,75.72
2018-06-19T03:29:05.406Z,76.67
2018-06-19T03:30:15.585Z,77.15
2018-06-19T03:31:25.246Z,77.25
2018-06-19T03:32:35.003Z,77.62
2018-06-19T03:33:44.750Z,77.06
2018-06-19T03:34:54.759Z,78.01
2018-06-19T03:36:04.500Z,77.15
2018-06-19T03:37:14.506Z,77.15
2018-06-19T03:38:24.239Z,76.67
2018-06-19T03:39:33.976Z,75.53
2018-06-19T03:40:43.987Z,74.77
2018-06-19T03:41:53.724Z,74.96
2018-06-19T03:43:03.462Z,74.01
2018-06-19T03:44:13.465Z,74.38
2018-06-19T03:45:23.495Z,74.48
2018-06-19T03:46:33.500Z,74.86
2018-06-19T03:47:43.245Z,75.24
2018-06-19T03:48:53.247Z,74.48
2018-06-19T03:50:02.719Z,74.48
2018-06-19T03:51:11.658Z,73.91
2018-06-19T03:52:21.393Z,73.43
2018-06-19T03:53:31.410Z,73.91
2018-06-19T03:54:41.420Z,73.72
2018-06-19T03:55:51.423Z,74.38
2018-06-19T03:57:01.434Z,74.67
2018-06-19T03:58:11.170Z,74.1
2018-06-19T03:59:20.644Z,74.67
2018-06-19T04:00:30.646Z,74.67
2018-06-19T04:01:40.382Z,74.96
2018-06-19T04:02:50.390Z,75.43
2018-06-19T04:04:00.392Z,75.62
2018-06-19T04:05:10.130Z,75.81
2018-06-19T04:06:19.871Z,75.53
2018-06-19T04:07:29.890Z,75.81
2018-06-19T04:08:39.895Z,75.91
2018-06-19T04:09:49.635Z,75.15
2018-06-19T04:10:59.109Z,75.34
2018-06-19T04:12:08.581Z,74.1
2018-06-19T04:13:18.591Z,74.57
2018-06-19T04:14:28.607Z,75.91
2018-06-19T04:15:38.344Z,74.96
2018-06-19T04:16:48.079Z,75.62
2018-06-19T04:17:58.083Z,75.81
2018-06-19T04:19:07.825Z,75.34
2018-06-19T04:20:17.835Z,76.2
2018-06-19T04:21:27.840Z,76.77
2018-06-19T04:22:37.855Z,77.06
2018-06-19T04:23:47.874Z,76.67
2018-06-19T04:24:57.617Z,77.44
2018-06-19T04:26:07.353Z,76.96
2018-06-19T04:27:16.826Z,76.96
2018-06-19T04:28:26.833Z,77.25
2018-06-19T04:29:36.837Z,77.06
2018-06-19T04:30:46.855Z,77.25
2018-06-19T04:31:56.862Z,76.86
2018-06-19T04:33:06.608Z,77.15
2018-06-19T04:34:16.618Z,77.25
2018-06-19T04:35:26.622Z,77.06
2018-06-19T04:36:36.102Z,77.01
2018-06-19T04:37:45.571Z,77.87
2018-06-19T04:38:55.311Z,77.49
2018-06-19T04:40:05.059Z,77.78
2018-06-19T04:41:14.804Z,78.16
2018-06-19T04:42:24.537Z,77.2
2018-06-19T04:43:34.013Z,77.69
2018-06-19T04:44:44.021Z,78.06
2018-06-19T04:45:54.023Z,78.25
2018-06-19T04:47:03.773Z,77.3
2018-06-19T04:48:13.780Z,76.64
2018-06-19T04:49:23.833Z,75.96
2018-06-19T04:50:33.580Z,76.73
2018-06-19T04:51:43.317Z,78.06
2018-06-19T04:52:52.791Z,78.06
2018-06-19T04:54:02.530Z,77.2
2018-06-19T04:55:11.998Z,77.78
2018-06-19T04:56:21.742Z,77.49
2018-06-19T04:57:30.945Z,77.01
2018-06-19T04:58:40.950Z,77.87
2018-06-19T04:59:50.959Z,77.69
2018-06-19T05:01:00.961Z,78.25
2018-06-19T05:02:10.708Z,77.87
2018-06-19T05:03:20.177Z,77.49
2018-06-19T05:04:30.179Z,77.01
2018-06-19T05:05:40.206Z,77.59
2018-06-19T05:06:50.211Z,77.87
2018-06-19T05:07:59.949Z,78.16
2018-06-19T05:09:09.420Z,77.78
2018-06-19T05:10:19.425Z,78.16
2018-06-19T05:11:28.915Z,77.01
2018-06-19T05:12:38.118Z,77.06
2018-06-19T05:13:47.941Z,77.91
2018-06-19T05:14:57.950Z,76.96
2018-06-19T05:16:07.687Z,76.39
2018-06-19T05:17:17.703Z,74.01
2018-06-19T05:18:27.440Z,75.34
2018-06-19T05:19:36.920Z,74.77
2018-06-19T05:20:46.932Z,73.91
2018-06-19T05:21:56.936Z,71.91
2018-06-19T05:23:06.674Z,72.09
2018-06-19T05:24:16.412Z,69.84
2018-06-19T05:25:26.416Z,68.7
2018-06-19T05:26:36.159Z,70.7
2018-06-19T05:27:45.634Z,67.55
2018-06-19T05:28:55.647Z,64.88
2018-06-19T05:30:05.664Z,64.5
2018-06-19T05:31:15.139Z,65.07
2018-06-19T05:32:24.609Z,67.17
2018-06-19T05:33:34.345Z,66.69
2018-06-19T05:34:43.552Z,65.74
2018-06-19T05:35:53.299Z,65.55
2018-06-19T05:37:03.313Z,65.55
2018-06-19T05:38:13.058Z,65.67
2018-06-19T05:39:23.067Z,66.15
2018-06-19T05:40:35.076Z,66.82
2018-06-19T05:41:44.812Z,65.48
2018-06-19T05:42:54.815Z,61.66
2018-06-19T05:44:04.288Z,64.15
2018-06-19T05:45:14.038Z,64.91
2018-06-19T05:46:23.439Z,65.39
2018-06-19T05:47:33.547Z,65.58
2018-06-19T05:48:43.553Z,64.91
2018-06-19T05:49:53.291Z,66.15
2018-06-19T05:51:03.293Z,65.58
2018-06-19T05:52:13.326Z,64.91
2018-06-19T05:53:23.331Z,63.29
2018-06-19T05:54:33.337Z,62.81
2018-06-19T05:55:43.070Z,62.71
2018-06-19T05:56:52.548Z,62.34
2018-06-19T05:58:02.554Z,63
2018-06-19T05:59:12.024Z,64.15
2018-06-19T06:00:21.775Z,62.18
2018-06-19T06:01:31.783Z,61.66
2018-06-19T06:02:41.518Z,61.95
2018-06-19T06:03:51.255Z,61.66
2018-06-19T06:05:00.726Z,60.33
2018-06-19T06:06:10.472Z,61.69
2018-06-19T06:07:20.220Z,60.71
2018-06-19T06:08:29.691Z,59.76
2018-06-19T06:09:39.168Z,60.04
2018-06-19T06:10:48.905Z,59.31
2018-06-19T06:11:58.648Z,60.9
2018-06-19T06:13:08.123Z,60.46
2018-06-19T06:14:18.123Z,60.27
2018-06-19T06:15:28.170Z,59.31
2018-06-19T06:16:38.465Z,58.64
2018-06-19T06:17:48.540Z,57.78
2018-06-19T06:18:58.556Z,58.64
2018-06-19T06:20:07.762Z,58.93
2018-06-19T06:21:17.516Z,60.74
2018-06-19T06:22:27.257Z,59.41
2018-06-19T06:23:36.991Z,61.69
2018-06-19T06:24:47.097Z,59.31
2018-06-19T06:25:56.840Z,60.27
2018-06-19T06:27:06.060Z,59.41
2018-06-19T06:28:15.541Z,59.31
2018-06-19T06:29:25.562Z,59.31
2018-06-19T06:30:35.299Z,60.46
2018-06-19T06:31:45.043Z,61.69
2018-06-19T06:32:54.784Z,60.55
2018-06-19T06:34:04.535Z,60.27
2018-06-19T06:35:13.742Z,59.41
2018-06-19T06:36:23.750Z,59.22
2018-06-19T06:37:33.499Z,58.64
2018-06-19T06:38:42.976Z,59.41
2018-06-19T06:39:52.993Z,59.98
2018-06-19T06:41:03.000Z,58.16
2018-06-19T06:42:13.015Z,59.22
2018-06-19T06:43:22.756Z,60.17
2018-06-19T06:44:32.496Z,56.95
2018-06-19T06:45:42.503Z,58.64
2018-06-19T06:46:52.513Z,59.34
2018-06-19T06:48:02.525Z,58
2018-06-19T06:49:12.531Z,57.9
2018-06-19T06:50:22.753Z,56.47
2018-06-19T06:51:33.430Z,55.58
2018-06-19T06:52:42.910Z,55.77
2018-06-19T06:53:52.922Z,57.59
2018-06-19T06:55:02.672Z,58.1
2018-06-19T06:56:12.412Z,59.81
2018-06-19T06:57:22.423Z,58.58
2018-06-19T06:58:32.442Z,59.05
2018-06-19T06:59:42.189Z,59.15
2018-06-19T07:00:52.202Z,57.04
2018-06-19T07:02:02.206Z,57.81
2018-06-19T07:03:11.153Z,57.14
2018-06-19T07:04:20.361Z,57.9
2018-06-19T07:05:30.097Z,57.43
2018-06-19T07:06:39.575Z,57.04
2018-06-19T07:07:49.448Z,57.14
2018-06-19T07:08:59.452Z,55.52
2018-06-19T07:10:09.281Z,57.14
2018-06-19T07:11:19.384Z,58.48
2018-06-19T07:12:29.138Z,57.33
2018-06-19T07:13:38.616Z,55.8
2018-06-19T07:14:48.090Z,56.28
2018-06-19T07:15:58.199Z,56.09
2018-06-19T07:17:08.127Z,58.86
2018-06-19T07:18:17.874Z,58
2018-06-19T07:19:27.136Z,55.45
2018-06-19T07:20:37.653Z,55.99
2018-06-19T07:21:47.677Z,56.28
2018-06-19T07:22:57.685Z,56.31
2018-06-19T07:24:07.430Z,55.26
2018-06-19T07:25:17.178Z,54.39
2018-06-19T07:26:26.933Z,54.68
2018-06-19T07:27:36.679Z,56.67
2018-06-19T07:28:46.421Z,57.62
2018-06-19T07:29:56.161Z,57.81
2018-06-19T07:31:06.172Z,58.32
2018-06-19T07:32:15.640Z,56.21
2018-06-19T07:33:25.662Z,55.64
2018-06-19T07:34:35.410Z,57.17
2018-06-19T07:35:44.949Z,56.5
2018-06-19T07:36:55.107Z,58.12
2018-06-19T07:38:04.155Z,59.75
2018-06-19T07:39:14.590Z,54.97
2018-06-19T07:40:24.087Z,54.02
2018-06-19T07:41:33.830Z,54.49
2018-06-19T07:42:43.869Z,56.31
2018-06-19T07:43:53.753Z,54.21
2018-06-19T07:45:03.660Z,54.02
2018-06-19T07:46:13.405Z,53.73
2018-06-19T07:47:23.417Z,54.02
2018-06-19T07:48:33.168Z,56.4
2018-06-19T07:49:43.315Z,54.3
2018-06-19T07:50:53.061Z,56.4
2018-06-19T07:52:02.802Z,56.43
2018-06-19T07:53:12.271Z,55
2018-06-19T07:54:22.016Z,52.8
2018-06-19T07:55:32.074Z,53.94
2018-06-19T07:56:42.325Z,54.43
2018-06-19T07:57:52.070Z,53.66
2018-06-19T07:59:01.548Z,53.18
2018-06-19T08:00:11.559Z,52.51
2018-06-19T08:01:21.306Z,52.51
2018-06-19T08:02:31.047Z,52.8
2018-06-19T08:03:40.793Z,53.66
2018-06-19T08:04:50.534Z,55.57
2018-06-19T08:06:00.546Z,52.54
2018-06-19T08:07:10.554Z,52.8
2018-06-19T08:08:20.565Z,52.44
2018-06-19T08:09:30.575Z,50.72
2018-06-19T08:10:40.316Z,52.99
2018-06-19T08:11:50.675Z,50.72
2018-06-19T08:13:00.425Z,50.72
2018-06-19T08:14:09.904Z,53.49
2018-06-19T08:15:19.645Z,50.43
2018-06-19T08:16:29.647Z,53.2
2018-06-19T08:17:39.650Z,51.1
2018-06-19T08:18:49.775Z,50.34
2018-06-19T08:19:59.462Z,50.74
2018-06-19T08:21:08.670Z,49.76
2018-06-19T08:22:18.709Z,48.64
2018-06-19T08:23:28.716Z,49.21
2018-06-19T08:24:38.723Z,50.07
2018-06-19T08:25:48.740Z,48.93
2018-06-19T08:26:58.215Z,49.02
2018-06-19T08:28:07.693Z,49.31
2018-06-19T08:29:17.706Z,50.56
2018-06-19T08:30:27.448Z,50.65
2018-06-19T08:31:37.462Z,51.7
2018-06-19T08:32:46.949Z,50.74
2018-06-19T08:33:56.705Z,49.33
2018-06-19T08:35:06.176Z,50.65
2018-06-19T08:36:15.991Z,50.1
2018-06-19T08:37:26.364Z,49.43
2018-06-19T08:38:35.857Z,47.99
2018-06-19T08:39:45.625Z,49.14
2018-06-19T08:40:55.393Z,47.71
2018-06-19T08:42:05.442Z,51.15
2018-06-19T08:43:14.958Z,49.05
2018-06-19T08:44:24.996Z,50.58
2018-06-19T08:45:34.209Z,50.77
2018-06-19T08:46:44.220Z,49.52
2018-06-19T08:47:54.258Z,47.8
2018-06-19T08:49:03.802Z,47.8
2018-06-19T08:50:13.557Z,47.99
2018-06-19T08:51:23.568Z,47.89
2018-06-19T08:52:33.328Z,47.99
2018-06-19T08:53:43.344Z,48.25
2018-06-19T08:54:52.818Z,47.68
2018-06-19T08:56:02.827Z,50.46
2018-06-19T08:57:12.579Z,50.17
2018-06-19T08:58:22.623Z,49.02
2018-06-19T08:59:32.137Z,47.97
2018-06-19T09:00:42.148Z,49.11
2018-06-19T09:01:51.361Z,51.79
2018-06-19T09:03:01.106Z,52.09
2018-06-19T09:04:10.907Z,51.13
2018-06-19T09:05:20.915Z,54.67
2018-06-19T09:06:30.924Z,52.59
2018-06-19T09:07:40.949Z,50
2018-06-19T09:08:50.712Z,51.15
2018-06-19T09:10:00.458Z,50.96
2018-06-19T09:11:10.215Z,50.58
2018-06-19T09:12:20.255Z,52.3
2018-06-19T09:13:30.424Z,50.67
2018-06-19T09:14:40.178Z,52.59
2018-06-19T09:15:50.193Z,53.36
2018-06-19T09:16:59.935Z,52.23
2018-06-19T09:18:09.142Z,52.04
2018-06-19T09:19:18.879Z,52.42
2018-06-19T09:20:28.757Z,52.91
2018-06-19T09:21:38.603Z,49.74
2018-06-19T09:22:48.704Z,49.29
2018-06-19T09:23:58.712Z,49
2018-06-19T09:25:08.456Z,48.88
2018-06-19T09:26:18.467Z,50.63
2018-06-19T09:27:28.216Z,50.34
2018-06-19T09:28:38.227Z,48.04
2018-06-19T09:29:47.704Z,49.67
2018-06-19T09:30:57.712Z,49.57
2018-06-19T09:32:07.465Z,47.85
2018-06-19T09:33:17.208Z,47.27
2018-06-19T09:34:26.686Z,47.27
2018-06-19T09:35:35.914Z,48.23
2018-06-19T09:36:45.656Z,48.61
2018-06-19T09:37:55.398Z,48.61
2018-06-19T09:39:05.341Z,48.61
2018-06-19T09:40:14.816Z,47.56
2018-06-19T09:41:24.561Z,47.17
2018-06-19T09:42:34.301Z,49.36
2018-06-19T09:43:44.052Z,49.57
2018-06-19T09:44:54.265Z,49.19
2018-06-19T09:46:04.004Z,48.33
2018-06-19T09:47:13.479Z,48.23
2018-06-19T09:48:22.955Z,49
2018-06-19T09:49:32.169Z,48.52
2018-06-19T09:50:42.488Z,49.86
2018-06-19T09:51:52.231Z,48.64
2018-06-19T09:53:02.244Z,49.41
2018-06-19T09:54:11.723Z,49.98
2018-06-19T09:55:21.211Z,48.44
2018-06-19T09:56:31.279Z,49.88
2018-06-19T09:57:41.288Z,47.39
2018-06-19T09:58:51.038Z,47.3
2018-06-19T10:00:01.140Z,48.64
2018-06-19T10:01:10.889Z,48.09
2018-06-19T10:02:20.900Z,46.81
2018-06-19T10:03:30.657Z,47.01
2018-06-19T10:04:40.402Z,47.01
2018-06-19T10:05:50.257Z,47.39
2018-06-19T10:07:00.265Z,48.85
2018-06-19T10:08:10.276Z,45.5
2018-06-19T10:09:20.024Z,44.9
2018-06-19T10:10:29.781Z,45.67
2018-06-19T10:11:39.541Z,46.72
2018-06-19T10:12:49.563Z,48.83
2018-06-19T10:13:59.309Z,47.3
2018-06-19T10:15:08.524Z,48.44
2018-06-19T10:16:18.264Z,50.65
2018-06-19T10:17:27.748Z,46.94
2018-06-19T10:18:37.490Z,45.5
2018-06-19T10:19:47.512Z,46.74
2018-06-19T10:20:57.524Z,46.94
2018-06-19T10:22:07.040Z,47.71
2018-06-19T10:23:16.837Z,46.65
2018-06-19T10:24:26.589Z,46.84
2018-06-19T10:25:36.448Z,45.11
2018-06-19T10:26:46.471Z,43.57
2018-06-19T10:27:55.958Z,43.96
2018-06-19T10:29:05.450Z,42.71
2018-06-19T10:30:15.194Z,44.24
2018-06-19T10:31:24.671Z,46.84
2018-06-19T10:32:33.888Z,46.77
2018-06-19T10:33:43.899Z,45.14
2018-06-19T10:34:53.981Z,43.6
2018-06-19T10:36:03.519Z,45.42
2018-06-19T10:37:13.379Z,43.12
2018-06-19T10:38:22.874Z,43.57
2018-06-19T10:39:32.891Z,43.67
2018-06-19T10:40:42.902Z,45.59
2018-06-19T10:41:52.375Z,43.29
2018-06-19T10:43:01.588Z,44.34
2018-06-19T10:44:10.799Z,47.03
2018-06-19T10:45:20.542Z,43.19
2018-06-19T10:46:30.025Z,44.24
2018-06-19T10:47:40.041Z,44.44
2018-06-19T10:48:49.521Z,43.48
2018-06-19T10:49:59.530Z,43.19
2018-06-19T10:51:09.547Z,43.1
2018-06-19T10:52:19.026Z,42.13
2018-06-19T10:53:29.037Z,43.19
2018-06-19T10:54:38.784Z,44.06
2018-06-19T10:55:48.264Z,43.38
2018-06-19T10:56:58.016Z,43.38
2018-06-19T10:58:07.226Z,43.38
2018-06-19T10:59:17.264Z,43.38
2018-06-19T11:00:27.281Z,43.19
2018-06-19T11:01:38.545Z,42.23
2018-06-19T11:02:48.026Z,43.38
2018-06-19T11:03:57.505Z,42.23
2018-06-19T11:05:07.136Z,42.33
2018-06-19T11:06:17.537Z,44.82
2018-06-19T11:07:27.401Z,43.48
2018-06-19T11:08:37.956Z,42.25
2018-06-19T11:09:47.697Z,41.58
2018-06-19T11:10:57.764Z,44.27
2018-06-19T11:12:07.254Z,40.52
2018-06-19T11:13:17.265Z,40.52
2018-06-19T11:14:26.743Z,43.5
2018-06-19T11:15:35.954Z,44.37
2018-06-19T11:16:45.698Z,45.06
2018-06-19T11:17:55.708Z,43.5
2018-06-19T11:19:05.735Z,40.72
2018-06-19T11:20:15.482Z,40.81
2018-06-19T11:21:25.571Z,43.6
2018-06-19T11:22:35.967Z,44.37
2018-06-19T11:23:45.979Z,40.81
2018-06-19T11:24:56.129Z,40.41
2018-06-19T11:26:05.607Z,42.81
2018-06-19T11:27:15.086Z,42.9
2018-06-19T11:28:25.106Z,42.13
2018-06-19T11:29:34.851Z,42.61
2018-06-19T11:30:44.866Z,40.72
2018-06-19T11:31:54.609Z,40.99
2018-06-19T11:33:04.591Z,40.6
2018-06-19T11:34:14.357Z,40.5
2018-06-19T11:35:24.394Z,42.23
2018-06-19T11:36:34.409Z,41.87
2018-06-19T11:37:44.239Z,40.72
2018-06-19T11:38:54.270Z,42.25
2018-06-19T11:40:03.760Z,40.91
2018-06-19T11:41:13.778Z,41.77
2018-06-19T11:42:23.796Z,42.06
2018-06-19T11:43:33.548Z,42.44
2018-06-19T11:44:43.696Z,40.56
2018-06-19T11:45:53.853Z,39.41
2018-06-19T11:47:03.603Z,37.14
2018-06-19T11:48:13.358Z,37.24
2018-06-19T11:49:23.375Z,37.04
2018-06-19T11:50:33.394Z,36.76
2018-06-19T11:51:42.875Z,37.72
2018-06-19T11:52:52.895Z,37.22
2018-06-19T11:54:02.912Z,38.64
2018-06-19T11:55:12.661Z,37.59
2018-06-19T11:56:22.683Z,37.49
2018-06-19T11:57:32.439Z,36.93
2018-06-19T11:58:41.928Z,37.14
2018-06-19T11:59:51.945Z,35.81
2018-06-19T12:01:01.967Z,35.62
2018-06-19T12:02:11.227Z,36.41
2018-06-19T12:03:20.980Z,35.16
2018-06-19T12:04:30.990Z,33.25
2018-06-19T12:05:41.009Z,33.73
2018-06-19T12:06:50.635Z,33.15
2018-06-19T12:08:00.386Z,33.53
2018-06-19T12:09:09.875Z,34.21
2018-06-19T12:10:19.928Z,34.52
2018-06-19T12:11:29.694Z,34.13
2018-06-19T12:12:39.713Z,31.22
2018-06-19T12:13:48.930Z,31.7
2018-06-19T12:14:58.683Z,33.13
2018-06-19T12:16:08.167Z,33.5
2018-06-19T12:17:18.178Z,34.35
2018-06-19T12:18:27.928Z,33.59
2018-06-19T12:19:37.678Z,33.67
2018-06-19T12:20:47.705Z,34.62
2018-06-19T12:21:57.728Z,34.74
2018-06-19T12:23:07.215Z,33.75
2018-06-19T12:24:17.231Z,34.12
2018-06-19T12:25:27.247Z,34.99
2018-06-19T12:26:37.260Z,37.01
2018-06-19T12:27:47.272Z,37.01
2018-06-19T12:28:57.023Z,36.82
2018-06-19T12:30:06.509Z,37.49
2018-06-19T12:31:16.263Z,37.87
2018-06-19T12:32:26.333Z,36.91
2018-06-19T12:33:36.090Z,37.2
2018-06-19T12:34:45.836Z,36.72
2018-06-19T12:35:55.592Z,37.41
2018-06-19T12:37:05.075Z,36.27
2018-06-19T12:38:14.560Z,36.19
2018-06-19T12:39:24.056Z,37.37
2018-06-19T12:40:33.807Z,35.67
2018-06-19T12:41:43.665Z,32.41
2018-06-19T12:42:53.213Z,31.94
2018-06-19T12:44:02.741Z,31.75
2018-06-19T12:45:11.965Z,31.67
2018-06-19T12:46:21.461Z,31.94
2018-06-19T12:47:31.225Z,32.04
2018-06-19T12:48:41.243Z,34.84
2018-06-19T12:49:51.308Z,31.83
2018-06-19T12:51:01.152Z,32.6
2018-06-19T12:52:10.374Z,31.46
2018-06-19T12:53:20.145Z,31.46
2018-06-19T12:54:29.894Z,32.24
2018-06-19T12:55:39.920Z,31.98
2018-06-19T12:56:49.947Z,30.73
2018-06-19T12:57:59.976Z,29.57
2018-06-19T12:59:10.000Z,29.75
2018-06-19T13:00:20.024Z,30.12
2018-06-19T13:01:30.049Z,29.93
2018-06-19T13:02:40.068Z,30.14
2018-06-19T13:03:50.091Z,29.17
2018-06-19T13:04:59.579Z,31.68
2018-06-19T13:06:09.338Z,29.47
2018-06-19T13:07:19.093Z,29.57
2018-06-19T13:08:29.165Z,32.15
2018-06-19T13:09:38.923Z,29.63
2018-06-19T13:10:48.674Z,30.69
2018-06-19T13:11:58.441Z,31.18
2018-06-19T13:13:07.935Z,29.27
2018-06-19T13:14:17.955Z,29.06
2018-06-19T13:15:27.450Z,29.72
2018-06-19T13:16:37.478Z,30.8
2018-06-19T13:17:47.232Z,30.7
2018-06-19T13:18:57.250Z,30.62
2018-06-19T13:20:07.010Z,30.62
2018-06-19T13:21:16.776Z,29.19
2018-06-19T13:22:26.795Z,28.98
2018-06-19T13:23:36.622Z,28.88
2018-06-19T13:24:46.512Z,28.88
2018-06-19T13:25:56.533Z,29.17
2018-06-19T13:27:06.555Z,29.56
2018-06-19T13:28:16.574Z,31.1
2018-06-19T13:29:26.774Z,28.7
2018-06-19T13:30:36.206Z,28.2
2018-06-19T13:31:46.224Z,29.55
2018-06-19T13:32:55.979Z,30.11
2018-06-19T13:34:05.731Z,29.34
2018-06-19T13:35:15.488Z,29.74
2018-06-19T13:36:25.393Z,29.55
2018-06-19T13:37:34.880Z,27.91
2018-06-19T13:38:44.896Z,28.67
2018-06-19T13:39:54.656Z,29.55
2018-06-19T13:41:04.417Z,29.34
2018-06-19T13:42:14.176Z,28.67
2018-06-19T13:43:24.203Z,28.67
2018-06-19T13:44:34.227Z,30.49
2018-06-19T13:45:43.985Z,30.4
2018-06-19T13:46:53.743Z,29.93
2018-06-19T13:48:02.968Z,28.77
2018-06-19T13:49:12.731Z,27.61
2018-06-19T13:50:22.762Z,28.66
2018-06-19T13:51:32.787Z,29.53
2018-06-19T13:52:42.278Z,29.72
2018-06-19T13:53:52.031Z,29.74
2018-06-19T13:55:01.784Z,29.83
2018-06-19T13:56:11.805Z,29.85
2018-06-19T13:57:21.827Z,30.05
2018-06-19T13:58:31.863Z,28.91
2018-06-19T13:59:41.350Z,29.19
2018-06-19T14:00:51.106Z,29.27
2018-06-19T14:02:00.920Z,29.16
2018-06-19T14:03:10.432Z,29.06
2018-06-19T14:04:20.193Z,29.93
2018-06-19T14:05:29.680Z,28.98
2018-06-19T14:06:38.905Z,28.29
2018-06-19T14:07:48.498Z,29.08
2018-06-19T14:08:58.871Z,28.69
2018-06-19T14:10:08.895Z,29.06
2018-06-19T14:11:18.659Z,29.25
2018-06-19T14:12:28.415Z,29.64
2018-06-19T14:13:38.440Z,29.64
2018-06-19T14:14:47.927Z,29.72
2018-06-19T14:15:57.964Z,30.1
2018-06-19T14:17:07.721Z,32.47
2018-06-19T14:18:17.741Z,31.7
2018-06-19T14:19:27.615Z,32.07
2018-06-19T14:20:37.734Z,33.21
2018-06-19T14:21:47.860Z,34.06
2018-06-19T14:22:57.885Z,34.25
2018-06-19T14:24:07.649Z,33.39
2018-06-19T14:25:17.673Z,34.33
2018-06-19T14:26:27.425Z,34.22
2018-06-19T14:27:36.375Z,35.06
2018-06-19T14:28:46.124Z,34.39
2018-06-19T14:29:56.239Z,34.88
2018-06-19T14:31:06.286Z,36.68
2018-06-19T14:32:16.261Z,37.76
2018-06-19T14:33:26.483Z,37.07
2018-06-19T14:37:36.286Z,37.55
2018-06-19T14:38:46.295Z,38.12
2018-06-19T14:39:56.073Z,37.16
2018-06-19T14:41:05.553Z,36.3
2018-06-19T14:42:15.581Z,36.3
2018-06-19T14:43:25.597Z,36.88
2018-06-19T14:44:35.616Z,37.26
2018-06-19T14:45:45.370Z,37.64
2018-06-19T14:46:55.499Z,37.45
2018-06-19T14:48:05.516Z,38.22
2018-06-19T14:49:15.525Z,39.18
2018-06-19T14:50:25.280Z,36.11
2018-06-19T14:51:35.027Z,35.18
2018-06-19T14:52:44.509Z,32.52
2018-06-19T14:53:54.518Z,32.44
2018-06-19T14:55:04.056Z,30.93
2018-06-19T14:56:14.079Z,30.27
2018-06-19T14:57:23.572Z,30.11
2018-06-19T14:58:33.065Z,30.21
2018-06-19T14:59:43.127Z,29.25
2018-06-19T15:00:53.137Z,28.69
2018-06-19T15:02:02.915Z,29.36
2018-06-19T15:03:12.669Z,26.87
2018-06-19T15:04:22.155Z,29.08
2018-06-19T15:05:32.181Z,27.15
2018-06-19T15:06:42.205Z,28.88
2018-06-19T15:07:51.969Z,28.13